Riverdale, Iowa
Current Conditions -  °F | °C
As of 9:20 AM on Saturday 22 Nov 2014 (Local Time) from KDVN Reporting Station
Haze Haze  
Wind Chill: 38°   Ceiling: 700
Heat Index: 44°   Visibility: 3mi
Dew Point: 41°   Wind: 12mph
Humidity: 89%   Direction: 180°S
Pressure: 29.93"   Gusts: NA
Location:  41.5718°N, 90.4678°W
Report Text: KDVN 221520Z AUTO 18010KT 3SM BR OVC007 07/05 A2993 RMK AO2 T00670050
Loading
Personal Weather Stations






























Interactive Weather Map New forecast layout! Learn more

10-Day Weather Forecast

Advertisements
Track Severe Weather on mobile